sensor_id;sensor_type;location;lat;lon;timestamp;P1;durP1;ratioP1;P2;durP2;ratioP2
13560;SDS011;6852;51.686;5.314;2023-06-14T00:00:58;3.53;;;2.70;;
13560;SDS011;6852;51.686;5.314;2023-06-14T00:03:25;5.67;;;3.47;;
13560;SDS011;6852;51.686;5.314;2023-06-14T00:05:52;9.00;;;3.53;;
13560;SDS011;6852;51.686;5.314;2023-06-14T00:08:20;4.63;;;3.17;;
13560;SDS011;6852;51.686;5.314;2023-06-14T00:10:49;3.60;;;2.70;;
13560;SDS011;6852;51.686;5.314;2023-06-14T00:13:16;7.47;;;3.10;;
13560;SDS011;6852;51.686;5.314;2023-06-14T00:15:42;4.63;;;3.27;;
13560;SDS011;6852;51.686;5.314;2023-06-14T00:18:10;4.80;;;3.33;;
13560;SDS011;6852;51.686;5.314;2023-06-14T00:20:38;3.67;;;3.20;;
13560;SDS011;6852;51.686;5.314;2023-06-14T00:23:09;5.80;;;3.33;;
13560;SDS011;6852;51.686;5.314;2023-06-14T00:25:40;7.33;;;2.77;;
13560;SDS011;6852;51.686;5.314;2023-06-14T00:28:07;5.00;;;3.10;;
13560;SDS011;6852;51.686;5.314;2023-06-14T00:30:34;4.07;;;2.80;;
13560;SDS011;6852;51.686;5.314;2023-06-14T00:33:01;5.27;;;2.90;;
13560;SDS011;6852;51.686;5.314;2023-06-14T00:35:28;6.47;;;3.40;;
13560;SDS011;6852;51.686;5.314;2023-06-14T00:37:55;3.97;;;2.90;;
13560;SDS011;6852;51.686;5.314;2023-06-14T00:40:22;4.40;;;3.30;;
13560;SDS011;6852;51.686;5.314;2023-06-14T00:42:49;5.57;;;3.00;;
13560;SDS011;6852;51.686;5.314;2023-06-14T00:45:16;3.90;;;3.17;;
13560;SDS011;6852;51.686;5.314;2023-06-14T00:47:46;6.40;;;3.07;;
13560;SDS011;6852;51.686;5.314;2023-06-14T00:50:17;7.87;;;3.30;;
13560;SDS011;6852;51.686;5.314;2023-06-14T00:52:50;3.60;;;2.93;;
13560;SDS011;6852;51.686;5.314;2023-06-14T00:55:17;5.40;;;2.70;;
13560;SDS011;6852;51.686;5.314;2023-06-14T00:57:44;4.23;;;3.17;;
13560;SDS011;6852;51.686;5.314;2023-06-14T01:00:18;4.70;;;3.90;;
13560;SDS011;6852;51.686;5.314;2023-06-14T01:02:45;5.20;;;3.10;;
13560;SDS011;6852;51.686;5.314;2023-06-14T01:05:21;6.57;;;3.20;;
13560;SDS011;6852;51.686;5.314;2023-06-14T01:13:20;6.40;;;3.00;;
13560;SDS011;6852;51.686;5.314;2023-06-14T01:15:52;6.10;;;2.97;;
13560;SDS011;6852;51.686;5.314;2023-06-14T01:18:21;4.40;;;3.50;;
13560;SDS011;6852;51.686;5.314;2023-06-14T01:20:56;3.87;;;3.00;;
13560;SDS011;6852;51.686;5.314;2023-06-14T01:23:46;4.87;;;3.10;;
13560;SDS011;6852;51.686;5.314;2023-06-14T01:26:23;5.97;;;3.00;;
13560;SDS011;6852;51.686;5.314;2023-06-14T01:28:50;6.47;;;3.20;;
13560;SDS011;6852;51.686;5.314;2023-06-14T01:31:23;5.57;;;3.43;;
13560;SDS011;6852;51.686;5.314;2023-06-14T01:33:51;4.10;;;2.87;;
13560;SDS011;6852;51.686;5.314;2023-06-14T01:36:19;5.20;;;2.77;;
13560;SDS011;6852;51.686;5.314;2023-06-14T01:38:47;5.37;;;3.33;;
13560;SDS011;6852;51.686;5.314;2023-06-14T01:41:17;3.50;;;3.10;;
13560;SDS011;6852;51.686;5.314;2023-06-14T01:43:46;4.00;;;3.03;;
13560;SDS011;6852;51.686;5.314;2023-06-14T01:46:15;3.43;;;2.97;;
13560;SDS011;6852;51.686;5.314;2023-06-14T01:48:43;4.17;;;2.70;;
13560;SDS011;6852;51.686;5.314;2023-06-14T01:51:13;6.03;;;3.23;;
13560;SDS011;6852;51.686;5.314;2023-06-14T01:53:40;4.87;;;3.10;;
13560;SDS011;6852;51.686;5.314;2023-06-14T01:56:07;6.10;;;3.13;;
13560;SDS011;6852;51.686;5.314;2023-06-14T01:58:34;5.87;;;3.40;;
13560;SDS011;6852;51.686;5.314;2023-06-14T02:01:05;3.10;;;2.80;;
13560;SDS011;6852;51.686;5.314;2023-06-14T02:03:35;5.27;;;2.90;;
13560;SDS011;6852;51.686;5.314;2023-06-14T02:06:04;4.77;;;3.00;;
13560;SDS011;6852;51.686;5.314;2023-06-14T02:08:31;4.47;;;2.70;;
13560;SDS011;6852;51.686;5.314;2023-06-14T02:10:58;4.20;;;2.80;;
13560;SDS011;6852;51.686;5.314;2023-06-14T02:13:26;5.13;;;2.90;;
13560;SDS011;6852;51.686;5.314;2023-06-14T02:15:56;2.60;;;2.40;;
13560;SDS011;6852;51.686;5.314;2023-06-14T02:18:24;7.17;;;3.00;;
13560;SDS011;6852;51.686;5.314;2023-06-14T02:20:51;4.20;;;3.03;;
13560;SDS011;6852;51.686;5.314;2023-06-14T02:23:18;3.80;;;3.20;;
13560;SDS011;6852;51.686;5.314;2023-06-14T02:25:46;6.87;;;2.97;;
13560;SDS011;6852;51.686;5.314;2023-06-14T02:28:14;5.47;;;3.10;;
13560;SDS011;6852;51.686;5.314;2023-06-14T02:30:44;3.60;;;2.60;;
13560;SDS011;6852;51.686;5.314;2023-06-14T02:33:11;4.03;;;3.00;;
13560;SDS011;6852;51.686;5.314;2023-06-14T02:35:39;5.80;;;3.10;;
13560;SDS011;6852;51.686;5.314;2023-06-14T02:38:07;4.57;;;2.93;;
13560;SDS011;6852;51.686;5.314;2023-06-14T02:40:36;3.87;;;3.00;;
13560;SDS011;6852;51.686;5.314;2023-06-14T02:43:20;5.13;;;2.70;;
13560;SDS011;6852;51.686;5.314;2023-06-14T02:45:50;4.47;;;2.93;;
13560;SDS011;6852;51.686;5.314;2023-06-14T02:48:19;5.30;;;2.67;;
13560;SDS011;6852;51.686;5.314;2023-06-14T02:50:49;7.70;;;2.67;;
13560;SDS011;6852;51.686;5.314;2023-06-14T02:53:17;4.60;;;3.67;;
13560;SDS011;6852;51.686;5.314;2023-06-14T02:55:44;3.43;;;2.70;;
13560;SDS011;6852;51.686;5.314;2023-06-14T02:58:13;6.33;;;3.27;;
13560;SDS011;6852;51.686;5.314;2023-06-14T03:00:40;3.50;;;2.63;;
13560;SDS011;6852;51.686;5.314;2023-06-14T03:03:09;4.10;;;2.73;;
13560;SDS011;6852;51.686;5.314;2023-06-14T03:05:43;3.37;;;2.90;;
13560;SDS011;6852;51.686;5.314;2023-06-14T03:08:18;5.30;;;3.03;;
13560;SDS011;6852;51.686;5.314;2023-06-14T03:10:46;3.43;;;2.70;;
13560;SDS011;6852;51.686;5.314;2023-06-14T03:13:14;3.53;;;2.80;;
13560;SDS011;6852;51.686;5.314;2023-06-14T03:15:42;4.83;;;2.90;;
13560;SDS011;6852;51.686;5.314;2023-06-14T03:18:10;6.10;;;2.80;;
13560;SDS011;6852;51.686;5.314;2023-06-14T03:20:39;8.40;;;3.10;;
13560;SDS011;6852;51.686;5.314;2023-06-14T03:23:20;5.27;;;2.80;;
13560;SDS011;6852;51.686;5.314;2023-06-14T03:25:47;3.70;;;2.90;;
13560;SDS011;6852;51.686;5.314;2023-06-14T03:28:14;5.60;;;3.10;;
13560;SDS011;6852;51.686;5.314;2023-06-14T03:30:42;6.83;;;3.10;;
13560;SDS011;6852;51.686;5.314;2023-06-14T03:33:09;7.30;;;2.87;;
13560;SDS011;6852;51.686;5.314;2023-06-14T03:35:41;4.00;;;3.10;;
13560;SDS011;6852;51.686;5.314;2023-06-14T03:38:12;6.10;;;3.17;;
13560;SDS011;6852;51.686;5.314;2023-06-14T03:40:45;4.50;;;3.00;;
13560;SDS011;6852;51.686;5.314;2023-06-14T03:43:15;5.43;;;3.23;;
13560;SDS011;6852;51.686;5.314;2023-06-14T03:45:42;3.87;;;3.00;;
13560;SDS011;6852;51.686;5.314;2023-06-14T03:48:13;4.90;;;3.53;;
13560;SDS011;6852;51.686;5.314;2023-06-14T03:50:52;3.87;;;3.10;;
13560;SDS011;6852;51.686;5.314;2023-06-14T03:53:26;5.57;;;2.93;;
13560;SDS011;6852;51.686;5.314;2023-06-14T03:56:00;6.73;;;3.13;;
13560;SDS011;6852;51.686;5.314;2023-06-14T03:58:30;5.33;;;3.10;;
13560;SDS011;6852;51.686;5.314;2023-06-14T04:01:12;4.87;;;2.87;;
13560;SDS011;6852;51.686;5.314;2023-06-14T04:03:39;5.30;;;3.30;;
13560;SDS011;6852;51.686;5.314;2023-06-14T04:06:08;6.53;;;3.77;;
13560;SDS011;6852;51.686;5.314;2023-06-14T04:08:35;4.47;;;3.57;;
13560;SDS011;6852;51.686;5.314;2023-06-14T04:11:22;3.97;;;3.07;;
13560;SDS011;6852;51.686;5.314;2023-06-14T04:13:49;6.57;;;3.73;;
13560;SDS011;6852;51.686;5.314;2023-06-14T04:16:20;7.60;;;3.03;;
13560;SDS011;6852;51.686;5.314;2023-06-14T04:18:47;7.10;;;3.20;;
13560;SDS011;6852;51.686;5.314;2023-06-14T04:21:18;4.57;;;2.97;;
13560;SDS011;6852;51.686;5.314;2023-06-14T04:23:47;5.13;;;3.33;;
13560;SDS011;6852;51.686;5.314;2023-06-14T04:26:15;4.20;;;3.23;;
13560;SDS011;6852;51.686;5.314;2023-06-14T04:28:46;7.00;;;3.10;;
13560;SDS011;6852;51.686;5.314;2023-06-14T04:31:22;3.53;;;3.20;;
13560;SDS011;6852;51.686;5.314;2023-06-14T04:33:58;6.53;;;2.90;;
13560;SDS011;6852;51.686;5.314;2023-06-14T04:36:26;4.47;;;3.57;;
13560;SDS011;6852;51.686;5.314;2023-06-14T04:39:00;4.57;;;3.57;;
13560;SDS011;6852;51.686;5.314;2023-06-14T04:41:29;8.30;;;2.93;;
13560;SDS011;6852;51.686;5.314;2023-06-14T04:43:58;5.40;;;3.00;;
13560;SDS011;6852;51.686;5.314;2023-06-14T04:46:28;7.13;;;3.43;;
13560;SDS011;6852;51.686;5.314;2023-06-14T04:48:56;6.37;;;3.23;;
13560;SDS011;6852;51.686;5.314;2023-06-14T04:51:24;7.70;;;3.30;;
13560;SDS011;6852;51.686;5.314;2023-06-14T04:53:56;7.17;;;3.60;;
13560;SDS011;6852;51.686;5.314;2023-06-14T04:56:24;5.17;;;3.27;;
13560;SDS011;6852;51.686;5.314;2023-06-14T04:58:52;7.43;;;3.57;;
13560;SDS011;6852;51.686;5.314;2023-06-14T05:01:20;6.50;;;3.40;;
13560;SDS011;6852;51.686;5.314;2023-06-14T05:03:50;6.57;;;3.43;;
13560;SDS011;6852;51.686;5.314;2023-06-14T05:06:17;7.17;;;3.77;;
13560;SDS011;6852;51.686;5.314;2023-06-14T05:08:46;3.43;;;3.07;;
13560;SDS011;6852;51.686;5.314;2023-06-14T05:11:13;3.23;;;2.90;;
13560;SDS011;6852;51.686;5.314;2023-06-14T05:13:44;7.63;;;3.07;;
13560;SDS011;6852;51.686;5.314;2023-06-14T05:16:23;3.83;;;3.10;;
13560;SDS011;6852;51.686;5.314;2023-06-14T05:18:54;6.10;;;3.33;;
13560;SDS011;6852;51.686;5.314;2023-06-14T05:21:21;5.23;;;3.40;;
13560;SDS011;6852;51.686;5.314;2023-06-14T05:23:52;4.30;;;3.10;;
13560;SDS011;6852;51.686;5.314;2023-06-14T05:26:20;5.80;;;3.40;;
13560;SDS011;6852;51.686;5.314;2023-06-14T05:28:47;4.13;;;3.30;;
13560;SDS011;6852;51.686;5.314;2023-06-14T05:31:14;3.93;;;2.90;;
13560;SDS011;6852;51.686;5.314;2023-06-14T05:33:42;4.27;;;3.10;;
13560;SDS011;6852;51.686;5.314;2023-06-14T05:36:09;5.33;;;2.87;;
13560;SDS011;6852;51.686;5.314;2023-06-14T05:38:42;3.80;;;3.13;;
13560;SDS011;6852;51.686;5.314;2023-06-14T05:41:20;6.40;;;2.67;;
13560;SDS011;6852;51.686;5.314;2023-06-14T05:43:53;3.07;;;2.77;;
13560;SDS011;6852;51.686;5.314;2023-06-14T05:46:25;5.93;;;3.00;;
13560;SDS011;6852;51.686;5.314;2023-06-14T05:49:03;5.40;;;3.33;;
13560;SDS011;6852;51.686;5.314;2023-06-14T05:51:36;8.43;;;2.90;;
13560;SDS011;6852;51.686;5.314;2023-06-14T05:54:03;7.63;;;2.70;;
13560;SDS011;6852;51.686;5.314;2023-06-14T05:56:33;6.50;;;2.90;;
13560;SDS011;6852;51.686;5.314;2023-06-14T05:59:01;4.97;;;2.97;;
13560;SDS011;6852;51.686;5.314;2023-06-14T06:01:45;4.77;;;2.80;;
13560;SDS011;6852;51.686;5.314;2023-06-14T06:04:15;5.33;;;3.23;;
13560;SDS011;6852;51.686;5.314;2023-06-14T06:06:42;4.10;;;3.00;;
13560;SDS011;6852;51.686;5.314;2023-06-14T06:09:09;6.60;;;3.10;;
13560;SDS011;6852;51.686;5.314;2023-06-14T06:11:38;4.00;;;3.20;;
13560;SDS011;6852;51.686;5.314;2023-06-14T06:14:18;5.33;;;3.10;;
13560;SDS011;6852;51.686;5.314;2023-06-14T06:16:54;4.40;;;2.93;;
13560;SDS011;6852;51.686;5.314;2023-06-14T06:19:21;5.10;;;3.23;;
13560;SDS011;6852;51.686;5.314;2023-06-14T06:21:48;7.07;;;2.90;;
13560;SDS011;6852;51.686;5.314;2023-06-14T06:24:16;4.30;;;2.80;;
13560;SDS011;6852;51.686;5.314;2023-06-14T06:26:43;6.77;;;2.90;;
13560;SDS011;6852;51.686;5.314;2023-06-14T06:29:10;4.93;;;3.07;;
13560;SDS011;6852;51.686;5.314;2023-06-14T06:31:37;6.87;;;3.23;;
13560;SDS011;6852;51.686;5.314;2023-06-14T06:34:05;7.40;;;3.73;;
13560;SDS011;6852;51.686;5.314;2023-06-14T06:36:32;6.27;;;3.03;;
13560;SDS011;6852;51.686;5.314;2023-06-14T06:38:59;4.80;;;3.27;;
13560;SDS011;6852;51.686;5.314;2023-06-14T06:41:26;3.63;;;3.00;;
13560;SDS011;6852;51.686;5.314;2023-06-14T06:43:53;5.23;;;2.87;;
13560;SDS011;6852;51.686;5.314;2023-06-14T06:46:20;3.77;;;2.67;;
13560;SDS011;6852;51.686;5.314;2023-06-14T06:48:47;7.50;;;3.60;;
13560;SDS011;6852;51.686;5.314;2023-06-14T06:51:14;3.50;;;3.00;;
13560;SDS011;6852;51.686;5.314;2023-06-14T06:53:42;4.97;;;3.00;;
13560;SDS011;6852;51.686;5.314;2023-06-14T06:56:17;3.43;;;3.13;;
13560;SDS011;6852;51.686;5.314;2023-06-14T06:58:44;7.07;;;3.27;;
13560;SDS011;6852;51.686;5.314;2023-06-14T07:01:11;3.57;;;2.37;;
13560;SDS011;6852;51.686;5.314;2023-06-14T07:03:39;6.90;;;2.90;;
13560;SDS011;6852;51.686;5.314;2023-06-14T07:06:07;3.50;;;3.00;;
13560;SDS011;6852;51.686;5.314;2023-06-14T07:08:34;6.13;;;3.37;;
13560;SDS011;6852;51.686;5.314;2023-06-14T07:11:05;5.13;;;3.30;;
13560;SDS011;6852;51.686;5.314;2023-06-14T07:13:32;5.43;;;2.63;;
13560;SDS011;6852;51.686;5.314;2023-06-14T07:15:59;6.03;;;3.25;;
13560;SDS011;6852;51.686;5.314;2023-06-14T07:18:29;3.80;;;2.60;;
13560;SDS011;6852;51.686;5.314;2023-06-14T07:20:56;6.03;;;2.60;;
13560;SDS011;6852;51.686;5.314;2023-06-14T07:23:23;3.87;;;2.70;;
13560;SDS011;6852;51.686;5.314;2023-06-14T07:25:51;6.37;;;2.73;;
13560;SDS011;6852;51.686;5.314;2023-06-14T07:28:18;4.97;;;2.53;;
13560;SDS011;6852;51.686;5.314;2023-06-14T07:30:48;3.63;;;2.53;;
13560;SDS011;6852;51.686;5.314;2023-06-14T07:33:15;6.90;;;3.03;;
13560;SDS011;6852;51.686;5.314;2023-06-14T07:35:42;4.47;;;3.13;;
13560;SDS011;6852;51.686;5.314;2023-06-14T07:38:09;4.33;;;2.67;;
13560;SDS011;6852;51.686;5.314;2023-06-14T07:40:37;7.17;;;2.93;;
13560;SDS011;6852;51.686;5.314;2023-06-14T07:43:04;5.47;;;2.30;;
13560;SDS011;6852;51.686;5.314;2023-06-14T07:45:31;4.73;;;2.80;;
13560;SDS011;6852;51.686;5.314;2023-06-14T07:47:57;3.37;;;2.37;;
13560;SDS011;6852;51.686;5.314;2023-06-14T07:50:25;4.43;;;2.93;;
13560;SDS011;6852;51.686;5.314;2023-06-14T07:52:52;3.93;;;3.17;;
13560;SDS011;6852;51.686;5.314;2023-06-14T07:55:19;4.73;;;3.00;;
13560;SDS011;6852;51.686;5.314;2023-06-14T07:57:48;4.33;;;2.77;;
13560;SDS011;6852;51.686;5.314;2023-06-14T08:00:15;7.13;;;2.80;;
13560;SDS011;6852;51.686;5.314;2023-06-14T08:02:44;4.13;;;2.10;;
13560;SDS011;6852;51.686;5.314;2023-06-14T08:05:15;4.67;;;2.53;;
13560;SDS011;6852;51.686;5.314;2023-06-14T08:07:45;3.93;;;2.83;;
13560;SDS011;6852;51.686;5.314;2023-06-14T08:10:12;4.10;;;2.57;;
13560;SDS011;6852;51.686;5.314;2023-06-14T08:12:39;3.33;;;2.30;;
13560;SDS011;6852;51.686;5.314;2023-06-14T08:15:06;6.27;;;2.57;;
13560;SDS011;6852;51.686;5.314;2023-06-14T08:17:40;6.20;;;2.50;;
13560;SDS011;6852;51.686;5.314;2023-06-14T08:20:08;5.10;;;2.60;;
13560;SDS011;6852;51.686;5.314;2023-06-14T08:22:37;3.87;;;2.20;;
13560;SDS011;6852;51.686;5.314;2023-06-14T08:25:06;6.63;;;2.43;;
13560;SDS011;6852;51.686;5.314;2023-06-14T08:27:33;2.97;;;2.27;;
13560;SDS011;6852;51.686;5.314;2023-06-14T08:30:00;5.07;;;1.93;;
13560;SDS011;6852;51.686;5.314;2023-06-14T08:32:29;3.43;;;2.10;;
13560;SDS011;6852;51.686;5.314;2023-06-14T08:34:56;4.90;;;2.13;;
13560;SDS011;6852;51.686;5.314;2023-06-14T08:37:31;5.43;;;2.28;;
13560;SDS011;6852;51.686;5.314;2023-06-14T08:40:00;3.67;;;2.08;;
13560;SDS011;6852;51.686;5.314;2023-06-14T08:42:29;3.03;;;1.85;;
13560;SDS011;6852;51.686;5.314;2023-06-14T08:44:58;6.03;;;2.22;;
13560;SDS011;6852;51.686;5.314;2023-06-14T08:47:26;6.70;;;2.47;;
13560;SDS011;6852;51.686;5.314;2023-06-14T08:49:55;3.58;;;2.30;;
13560;SDS011;6852;51.686;5.314;2023-06-14T08:52:24;5.32;;;2.20;;
13560;SDS011;6852;51.686;5.314;2023-06-14T08:54:56;4.65;;;2.22;;
13560;SDS011;6852;51.686;5.314;2023-06-14T08:57:26;1.95;;;1.73;;
13560;SDS011;6852;51.686;5.314;2023-06-14T08:59:56;3.08;;;1.90;;
13560;SDS011;6852;51.686;5.314;2023-06-14T09:02:24;2.63;;;1.90;;
13560;SDS011;6852;51.686;5.314;2023-06-14T09:04:51;2.92;;;2.20;;
13560;SDS011;6852;51.686;5.314;2023-06-14T09:07:18;2.45;;;1.73;;
13560;SDS011;6852;51.686;5.314;2023-06-14T09:09:45;4.45;;;2.10;;
13560;SDS011;6852;51.686;5.314;2023-06-14T09:12:32;2.85;;;1.75;;
13560;SDS011;6852;51.686;5.314;2023-06-14T09:14:58;2.40;;;1.75;;
13560;SDS011;6852;51.686;5.314;2023-06-14T09:17:26;3.97;;;1.70;;
13560;SDS011;6852;51.686;5.314;2023-06-14T09:19:55;2.25;;;1.58;;
13560;SDS011;6852;51.686;5.314;2023-06-14T09:22:22;3.03;;;1.73;;
13560;SDS011;6852;51.686;5.314;2023-06-14T09:24:48;3.00;;;1.77;;
13560;SDS011;6852;51.686;5.314;2023-06-14T09:27:15;2.65;;;1.80;;
13560;SDS011;6852;51.686;5.314;2023-06-14T09:29:42;3.65;;;1.70;;
13560;SDS011;6852;51.686;5.314;2023-06-14T09:32:09;3.00;;;1.60;;
13560;SDS011;6852;51.686;5.314;2023-06-14T09:34:37;4.97;;;1.60;;
13560;SDS011;6852;51.686;5.314;2023-06-14T09:37:04;1.40;;;1.27;;
13560;SDS011;6852;51.686;5.314;2023-06-14T09:39:31;1.83;;;1.20;;
13560;SDS011;6852;51.686;5.314;2023-06-14T09:41:59;3.35;;;1.50;;
13560;SDS011;6852;51.686;5.314;2023-06-14T09:44:26;2.95;;;1.42;;
13560;SDS011;6852;51.686;5.314;2023-06-14T09:46:55;2.05;;;1.30;;
13560;SDS011;6852;51.686;5.314;2023-06-14T09:49:22;1.48;;;1.10;;
13560;SDS011;6852;51.686;5.314;2023-06-14T09:51:51;3.13;;;1.20;;
13560;SDS011;6852;51.686;5.314;2023-06-14T09:54:22;1.42;;;1.33;;
13560;SDS011;6852;51.686;5.314;2023-06-14T09:56:50;1.48;;;1.33;;
13560;SDS011;6852;51.686;5.314;2023-06-14T09:59:21;2.47;;;1.30;;
13560;SDS011;6852;51.686;5.314;2023-06-14T10:01:57;1.90;;;1.33;;
13560;SDS011;6852;51.686;5.314;2023-06-14T10:04:27;2.55;;;1.42;;
13560;SDS011;6852;51.686;5.314;2023-06-14T10:06:55;1.65;;;1.00;;
13560;SDS011;6852;51.686;5.314;2023-06-14T10:09:22;1.27;;;1.13;;
13560;SDS011;6852;51.686;5.314;2023-06-14T10:11:49;1.63;;;1.27;;
13560;SDS011;6852;51.686;5.314;2023-06-14T10:14:17;1.40;;;1.17;;
13560;SDS011;6852;51.686;5.314;2023-06-14T10:16:47;2.20;;;1.50;;
13560;SDS011;6852;51.686;5.314;2023-06-14T10:19:41;1.67;;;1.30;;
13560;SDS011;6852;51.686;5.314;2023-06-14T10:22:17;1.30;;;1.20;;
13560;SDS011;6852;51.686;5.314;2023-06-14T10:24:51;1.42;;;1.20;;
13560;SDS011;6852;51.686;5.314;2023-06-14T10:27:18;2.55;;;1.45;;
13560;SDS011;6852;51.686;5.314;2023-06-14T10:32:20;1.92;;;1.40;;
13560;SDS011;6852;51.686;5.314;2023-06-14T10:34:55;2.22;;;1.52;;
13560;SDS011;6852;51.686;5.314;2023-06-14T10:37:24;2.78;;;1.10;;
13560;SDS011;6852;51.686;5.314;2023-06-14T10:39:51;3.58;;;1.50;;
13560;SDS011;6852;51.686;5.314;2023-06-14T10:42:19;1.92;;;1.48;;
13560;SDS011;6852;51.686;5.314;2023-06-14T10:44:49;2.42;;;1.42;;
13560;SDS011;6852;51.686;5.314;2023-06-14T10:47:25;3.30;;;1.55;;
13560;SDS011;6852;51.686;5.314;2023-06-14T10:49:53;3.90;;;1.42;;
13560;SDS011;6852;51.686;5.314;2023-06-14T10:52:22;1.83;;;1.38;;
13560;SDS011;6852;51.686;5.314;2023-06-14T10:55:07;4.32;;;1.58;;
13560;SDS011;6852;51.686;5.314;2023-06-14T10:57:44;2.05;;;1.50;;
13560;SDS011;6852;51.686;5.314;2023-06-14T11:00:19;2.33;;;1.48;;
13560;SDS011;6852;51.686;5.314;2023-06-14T11:11:00;3.03;;;1.48;;
13560;SDS011;6852;51.686;5.314;2023-06-14T11:13:31;3.90;;;1.60;;
13560;SDS011;6852;51.686;5.314;2023-06-14T11:15:59;2.88;;;1.40;;
13560;SDS011;6852;51.686;5.314;2023-06-14T11:18:27;3.70;;;1.27;;
13560;SDS011;6852;51.686;5.314;2023-06-14T11:20:55;2.88;;;1.48;;
13560;SDS011;6852;51.686;5.314;2023-06-14T11:23:22;1.77;;;1.40;;
13560;SDS011;6852;51.686;5.314;2023-06-14T11:25:53;1.98;;;1.15;;
13560;SDS011;6852;51.686;5.314;2023-06-14T11:28:21;1.33;;;1.20;;
13560;SDS011;6852;51.686;5.314;2023-06-14T11:30:59;5.57;;;1.50;;
13560;SDS011;6852;51.686;5.314;2023-06-14T11:33:28;3.05;;;1.48;;
13560;SDS011;6852;51.686;5.314;2023-06-14T11:35:55;3.67;;;1.95;;
13560;SDS011;6852;51.686;5.314;2023-06-14T11:38:22;2.65;;;1.13;;
13560;SDS011;6852;51.686;5.314;2023-06-14T11:40:49;4.90;;;1.48;;
13560;SDS011;6852;51.686;5.314;2023-06-14T11:43:16;3.30;;;1.30;;
13560;SDS011;6852;51.686;5.314;2023-06-14T11:45:43;1.67;;;1.42;;
13560;SDS011;6852;51.686;5.314;2023-06-14T11:48:40;1.98;;;1.33;;
13560;SDS011;6852;51.686;5.314;2023-06-14T11:51:07;2.72;;;1.02;;
13560;SDS011;6852;51.686;5.314;2023-06-14T11:53:35;3.95;;;1.13;;
13560;SDS011;6852;51.686;5.314;2023-06-14T11:56:02;1.30;;;1.08;;
13560;SDS011;6852;51.686;5.314;2023-06-14T11:58:29;2.80;;;1.50;;
13560;SDS011;6852;51.686;5.314;2023-06-14T12:00:56;3.70;;;1.27;;
13560;SDS011;6852;51.686;5.314;2023-06-14T12:03:24;2.70;;;1.67;;
13560;SDS011;6852;51.686;5.314;2023-06-14T12:06:06;2.13;;;1.33;;
13560;SDS011;6852;51.686;5.314;2023-06-14T12:08:35;2.33;;;1.40;;
13560;SDS011;6852;51.686;5.314;2023-06-14T12:11:10;1.38;;;1.27;;
13560;SDS011;6852;51.686;5.314;2023-06-14T12:13:41;4.97;;;1.27;;
13560;SDS011;6852;51.686;5.314;2023-06-14T12:16:10;2.78;;;1.35;;
13560;SDS011;6852;51.686;5.314;2023-06-14T12:18:38;1.80;;;1.30;;
13560;SDS011;6852;51.686;5.314;2023-06-14T12:21:07;2.63;;;1.25;;
13560;SDS011;6852;51.686;5.314;2023-06-14T12:26:15;3.05;;;1.52;;
13560;SDS011;6852;51.686;5.314;2023-06-14T12:28:47;1.58;;;1.48;;
13560;SDS011;6852;51.686;5.314;2023-06-14T12:31:15;1.67;;;1.40;;
13560;SDS011;6852;51.686;5.314;2023-06-14T12:33:43;1.42;;;1.30;;
13560;SDS011;6852;51.686;5.314;2023-06-14T12:36:12;2.90;;;1.35;;
13560;SDS011;6852;51.686;5.314;2023-06-14T12:38:39;2.25;;;1.40;;
13560;SDS011;6852;51.686;5.314;2023-06-14T12:41:07;1.42;;;1.25;;
13560;SDS011;6852;51.686;5.314;2023-06-14T12:43:37;1.50;;;1.40;;
13560;SDS011;6852;51.686;5.314;2023-06-14T12:46:04;3.42;;;1.38;;
13560;SDS011;6852;51.686;5.314;2023-06-14T12:48:31;5.47;;;1.33;;
13560;SDS011;6852;51.686;5.314;2023-06-14T12:50:58;2.80;;;1.13;;
13560;SDS011;6852;51.686;5.314;2023-06-14T12:53:25;1.98;;;1.60;;
13560;SDS011;6852;51.686;5.314;2023-06-14T12:55:52;2.97;;;1.40;;
13560;SDS011;6852;51.686;5.314;2023-06-14T12:58:19;3.08;;;1.60;;
13560;SDS011;6852;51.686;5.314;2023-06-14T13:00:46;2.10;;;1.40;;
13560;SDS011;6852;51.686;5.314;2023-06-14T13:03:14;1.70;;;1.60;;
13560;SDS011;6852;51.686;5.314;2023-06-14T13:05:41;2.28;;;1.63;;
13560;SDS011;6852;51.686;5.314;2023-06-14T13:08:09;1.75;;;1.42;;
13560;SDS011;6852;51.686;5.314;2023-06-14T13:10:36;2.88;;;1.20;;
13560;SDS011;6852;51.686;5.314;2023-06-14T13:13:03;1.45;;;1.35;;
13560;SDS011;6852;51.686;5.314;2023-06-14T13:15:30;1.90;;;1.40;;
13560;SDS011;6852;51.686;5.314;2023-06-14T13:17:57;3.42;;;1.35;;
13560;SDS011;6852;51.686;5.314;2023-06-14T13:20:24;1.73;;;1.63;;
13560;SDS011;6852;51.686;5.314;2023-06-14T13:22:51;3.17;;;1.45;;
13560;SDS011;6852;51.686;5.314;2023-06-14T13:25:18;2.47;;;1.25;;
13560;SDS011;6852;51.686;5.314;2023-06-14T13:27:45;2.55;;;1.40;;
13560;SDS011;6852;51.686;5.314;2023-06-14T13:30:12;1.30;;;1.17;;
13560;SDS011;6852;51.686;5.314;2023-06-14T13:32:40;1.60;;;1.50;;
13560;SDS011;6852;51.686;5.314;2023-06-14T13:35:08;2.50;;;1.10;;
13560;SDS011;6852;51.686;5.314;2023-06-14T13:37:34;3.90;;;1.23;;
13560;SDS011;6852;51.686;5.314;2023-06-14T13:40:01;1.90;;;1.30;;
13560;SDS011;6852;51.686;5.314;2023-06-14T13:42:28;2.67;;;1.42;;
13560;SDS011;6852;51.686;5.314;2023-06-14T13:44:58;1.50;;;1.40;;
13560;SDS011;6852;51.686;5.314;2023-06-14T13:47:25;1.95;;;1.50;;
13560;SDS011;6852;51.686;5.314;2023-06-14T13:49:52;4.55;;;1.25;;
13560;SDS011;6852;51.686;5.314;2023-06-14T13:52:19;5.53;;;1.38;;
13560;SDS011;6852;51.686;5.314;2023-06-14T13:54:46;1.42;;;1.27;;
13560;SDS011;6852;51.686;5.314;2023-06-14T13:57:15;4.88;;;1.58;;
13560;SDS011;6852;51.686;5.314;2023-06-14T13:59:42;3.63;;;1.20;;
13560;SDS011;6852;51.686;5.314;2023-06-14T14:02:12;1.77;;;1.35;;
13560;SDS011;6852;51.686;5.314;2023-06-14T14:04:39;1.75;;;1.30;;
13560;SDS011;6852;51.686;5.314;2023-06-14T14:07:07;2.58;;;1.08;;
13560;SDS011;6852;51.686;5.314;2023-06-14T14:09:34;1.27;;;1.17;;
13560;SDS011;6852;51.686;5.314;2023-06-14T14:12:02;1.48;;;1.02;;
13560;SDS011;6852;51.686;5.314;2023-06-14T14:14:30;2.72;;;1.23;;
13560;SDS011;6852;51.686;5.314;2023-06-14T14:16:58;4.18;;;1.25;;
13560;SDS011;6852;51.686;5.314;2023-06-14T14:19:25;4.03;;;1.25;;
13560;SDS011;6852;51.686;5.314;2023-06-14T14:21:52;1.83;;;1.20;;
13560;SDS011;6852;51.686;5.314;2023-06-14T14:24:20;1.92;;;1.60;;
13560;SDS011;6852;51.686;5.314;2023-06-14T14:26:47;3.63;;;1.20;;
13560;SDS011;6852;51.686;5.314;2023-06-14T14:29:16;2.08;;;1.23;;
13560;SDS011;6852;51.686;5.314;2023-06-14T14:31:43;3.40;;;1.20;;
13560;SDS011;6852;51.686;5.314;2023-06-14T14:34:10;4.82;;;1.20;;
13560;SDS011;6852;51.686;5.314;2023-06-14T14:36:40;1.15;;;1.00;;
13560;SDS011;6852;51.686;5.314;2023-06-14T14:39:08;1.45;;;1.20;;
13560;SDS011;6852;51.686;5.314;2023-06-14T14:41:36;1.70;;;1.27;;
13560;SDS011;6852;51.686;5.314;2023-06-14T14:44:07;4.88;;;1.08;;
13560;SDS011;6852;51.686;5.314;2023-06-14T14:46:40;1.35;;;1.10;;
13560;SDS011;6852;51.686;5.314;2023-06-14T14:49:10;1.50;;;0.90;;
13560;SDS011;6852;51.686;5.314;2023-06-14T14:51:37;1.58;;;1.10;;
13560;SDS011;6852;51.686;5.314;2023-06-14T14:54:06;1.02;;;0.93;;
13560;SDS011;6852;51.686;5.314;2023-06-14T14:56:33;2.85;;;1.08;;
13560;SDS011;6852;51.686;5.314;2023-06-14T14:59:01;1.23;;;0.80;;
13560;SDS011;6852;51.686;5.314;2023-06-14T15:01:37;2.45;;;1.10;;
13560;SDS011;6852;51.686;5.314;2023-06-14T15:04:04;1.13;;;1.00;;
13560;SDS011;6852;51.686;5.314;2023-06-14T15:06:31;2.22;;;0.80;;
13560;SDS011;6852;51.686;5.314;2023-06-14T15:08:58;3.22;;;0.93;;
13560;SDS011;6852;51.686;5.314;2023-06-14T15:11:25;1.30;;;1.10;;
13560;SDS011;6852;51.686;5.314;2023-06-14T15:13:53;1.97;;;1.40;;
13560;SDS011;6852;51.686;5.314;2023-06-14T15:16:20;1.47;;;1.03;;
13560;SDS011;6852;51.686;5.314;2023-06-14T15:18:47;1.75;;;1.00;;
13560;SDS011;6852;51.686;5.314;2023-06-14T15:21:14;3.85;;;1.23;;
13560;SDS011;6852;51.686;5.314;2023-06-14T15:23:41;3.42;;;1.05;;
13560;SDS011;6852;51.686;5.314;2023-06-14T15:26:08;3.92;;;2.40;;
13560;SDS011;6852;51.686;5.314;2023-06-14T15:28:38;1.10;;;1.00;;
13560;SDS011;6852;51.686;5.314;2023-06-14T15:31:05;1.17;;;1.08;;